sensor_id;sensor_type;location;lat;lon;timestamp;P1;durP1;ratioP1;P2;durP2;ratioP2
579;SDS011;276;48.392;9.950;2022-12-07T00:01:30;9.97;;;8.90;;
579;SDS011;276;48.392;9.950;2022-12-07T00:03:59;8.90;;;8.10;;
579;SDS011;276;48.392;9.950;2022-12-07T00:06:29;8.23;;;7.50;;
579;SDS011;276;48.392;9.950;2022-12-07T00:08:59;8.70;;;7.80;;
579;SDS011;276;48.392;9.950;2022-12-07T00:11:25;9.07;;;8.27;;
579;SDS011;276;48.392;9.950;2022-12-07T00:13:54;7.87;;;7.13;;
579;SDS011;276;48.392;9.950;2022-12-07T00:16:24;10.30;;;9.30;;
579;SDS011;276;48.392;9.950;2022-12-07T00:18:51;7.57;;;6.97;;
579;SDS011;276;48.392;9.950;2022-12-07T00:21:37;8.97;;;8.27;;
579;SDS011;276;48.392;9.950;2022-12-07T00:24:05;8.53;;;7.83;;
579;SDS011;276;48.392;9.950;2022-12-07T00:26:32;9.03;;;8.20;;
579;SDS011;276;48.392;9.950;2022-12-07T00:29:01;8.73;;;7.93;;
579;SDS011;276;48.392;9.950;2022-12-07T00:31:31;9.00;;;8.10;;
579;SDS011;276;48.392;9.950;2022-12-07T00:33:58;9.10;;;8.20;;
579;SDS011;276;48.392;9.950;2022-12-07T00:36:24;10.57;;;9.50;;
579;SDS011;276;48.392;9.950;2022-12-07T00:38:50;9.50;;;8.60;;
579;SDS011;276;48.392;9.950;2022-12-07T00:41:17;9.23;;;8.50;;
579;SDS011;276;48.392;9.950;2022-12-07T00:43:45;10.13;;;9.33;;
579;SDS011;276;48.392;9.950;2022-12-07T00:46:11;8.90;;;8.17;;
579;SDS011;276;48.392;9.950;2022-12-07T00:48:38;11.73;;;8.47;;
579;SDS011;276;48.392;9.950;2022-12-07T00:51:07;11.07;;;9.97;;
579;SDS011;276;48.392;9.950;2022-12-07T00:53:34;9.43;;;8.63;;
579;SDS011;276;48.392;9.950;2022-12-07T00:56:07;9.60;;;8.70;;
579;SDS011;276;48.392;9.950;2022-12-07T00:58:40;9.57;;;8.77;;
579;SDS011;276;48.392;9.950;2022-12-07T01:01:07;9.70;;;8.90;;
579;SDS011;276;48.392;9.950;2022-12-07T01:03:34;10.83;;;9.87;;
579;SDS011;276;48.392;9.950;2022-12-07T01:06:03;10.10;;;9.17;;
579;SDS011;276;48.392;9.950;2022-12-07T01:08:33;9.90;;;9.10;;
579;SDS011;276;48.392;9.950;2022-12-07T01:11:00;8.90;;;8.10;;
579;SDS011;276;48.392;9.950;2022-12-07T01:13:28;8.50;;;7.80;;
579;SDS011;276;48.392;9.950;2022-12-07T01:15:56;8.80;;;8.03;;
579;SDS011;276;48.392;9.950;2022-12-07T01:18:27;9.80;;;8.80;;
579;SDS011;276;48.392;9.950;2022-12-07T01:23:30;10.30;;;9.40;;
579;SDS011;276;48.392;9.950;2022-12-07T01:25:57;9.27;;;8.57;;
579;SDS011;276;48.392;9.950;2022-12-07T01:28:24;9.30;;;8.50;;
579;SDS011;276;48.392;9.950;2022-12-07T01:31:00;9.33;;;8.60;;
579;SDS011;276;48.392;9.950;2022-12-07T01:33:28;8.40;;;7.70;;
579;SDS011;276;48.392;9.950;2022-12-07T01:36:12;10.13;;;9.33;;
579;SDS011;276;48.392;9.950;2022-12-07T01:38:40;10.03;;;9.03;;
579;SDS011;276;48.392;9.950;2022-12-07T01:41:08;8.30;;;7.60;;
579;SDS011;276;48.392;9.950;2022-12-07T01:43:35;9.40;;;8.60;;
579;SDS011;276;48.392;9.950;2022-12-07T01:46:03;9.40;;;8.53;;
579;SDS011;276;48.392;9.950;2022-12-07T01:48:38;9.80;;;8.90;;
579;SDS011;276;48.392;9.950;2022-12-07T01:51:09;9.97;;;9.07;;
579;SDS011;276;48.392;9.950;2022-12-07T01:53:38;9.00;;;8.27;;
579;SDS011;276;48.392;9.950;2022-12-07T01:56:08;9.40;;;8.50;;
579;SDS011;276;48.392;9.950;2022-12-07T01:58:43;10.47;;;9.57;;
579;SDS011;276;48.392;9.950;2022-12-07T02:01:10;11.97;;;10.97;;
579;SDS011;276;48.392;9.950;2022-12-07T02:03:39;10.93;;;10.03;;
579;SDS011;276;48.392;9.950;2022-12-07T02:06:07;10.00;;;9.13;;
579;SDS011;276;48.392;9.950;2022-12-07T02:08:35;10.63;;;9.73;;
579;SDS011;276;48.392;9.950;2022-12-07T02:11:03;12.37;;;11.10;;
579;SDS011;276;48.392;9.950;2022-12-07T02:13:33;12.33;;;11.23;;
579;SDS011;276;48.392;9.950;2022-12-07T02:21:41;11.60;;;10.50;;
579;SDS011;276;48.392;9.950;2022-12-07T02:29:58;12.10;;;11.00;;
579;SDS011;276;48.392;9.950;2022-12-07T02:35:06;13.80;;;12.20;;
579;SDS011;276;48.392;9.950;2022-12-07T02:42:43;11.00;;;10.00;;
579;SDS011;276;48.392;9.950;2022-12-07T02:45:13;11.60;;;10.50;;
579;SDS011;276;48.392;9.950;2022-12-07T02:47:45;12.20;;;11.03;;
579;SDS011;276;48.392;9.950;2022-12-07T02:50:19;11.80;;;10.60;;
579;SDS011;276;48.392;9.950;2022-12-07T02:52:47;10.77;;;9.77;;
579;SDS011;276;48.392;9.950;2022-12-07T02:55:14;10.47;;;9.47;;
579;SDS011;276;48.392;9.950;2022-12-07T02:58:06;11.27;;;10.27;;
579;SDS011;276;48.392;9.950;2022-12-07T03:00:31;11.40;;;10.30;;
579;SDS011;276;48.392;9.950;2022-12-07T03:03:04;11.40;;;10.40;;
579;SDS011;276;48.392;9.950;2022-12-07T03:11:24;13.23;;;11.90;;
579;SDS011;276;48.392;9.950;2022-12-07T03:19:33;12.40;;;11.30;;
579;SDS011;276;48.392;9.950;2022-12-07T03:22:09;12.90;;;11.50;;
579;SDS011;276;48.392;9.950;2022-12-07T03:24:57;13.30;;;12.00;;
579;SDS011;276;48.392;9.950;2022-12-07T03:27:31;13.83;;;12.10;;
579;SDS011;276;48.392;9.950;2022-12-07T03:32:35;12.70;;;11.60;;
579;SDS011;276;48.392;9.950;2022-12-07T03:35:28;12.13;;;11.00;;
579;SDS011;276;48.392;9.950;2022-12-07T03:41:21;10.70;;;9.70;;
579;SDS011;276;48.392;9.950;2022-12-07T03:43:55;10.50;;;9.60;;
579;SDS011;276;48.392;9.950;2022-12-07T03:49:00;11.17;;;10.17;;
579;SDS011;276;48.392;9.950;2022-12-07T03:51:38;11.97;;;10.97;;
579;SDS011;276;48.392;9.950;2022-12-07T03:54:13;10.50;;;9.50;;
579;SDS011;276;48.392;9.950;2022-12-07T03:56:41;11.00;;;10.03;;
579;SDS011;276;48.392;9.950;2022-12-07T03:59:11;10.20;;;9.30;;
579;SDS011;276;48.392;9.950;2022-12-07T04:01:41;10.07;;;9.27;;
579;SDS011;276;48.392;9.950;2022-12-07T04:04:17;11.80;;;10.70;;
579;SDS011;276;48.392;9.950;2022-12-07T04:06:42;10.90;;;10.00;;
579;SDS011;276;48.392;9.950;2022-12-07T04:09:08;10.03;;;9.03;;
579;SDS011;276;48.392;9.950;2022-12-07T04:11:36;10.67;;;9.67;;
579;SDS011;276;48.392;9.950;2022-12-07T04:14:01;8.90;;;8.10;;
579;SDS011;276;48.392;9.950;2022-12-07T04:16:46;8.97;;;8.17;;
579;SDS011;276;48.392;9.950;2022-12-07T04:19:25;8.60;;;7.67;;
579;SDS011;276;48.392;9.950;2022-12-07T04:21:55;7.60;;;7.00;;
579;SDS011;276;48.392;9.950;2022-12-07T04:24:27;8.93;;;8.10;;
579;SDS011;276;48.392;9.950;2022-12-07T04:26:53;7.70;;;7.00;;
579;SDS011;276;48.392;9.950;2022-12-07T04:29:20;8.67;;;7.93;;
579;SDS011;276;48.392;9.950;2022-12-07T04:31:49;7.27;;;6.67;;
579;SDS011;276;48.392;9.950;2022-12-07T04:34:15;7.03;;;6.50;;
579;SDS011;276;48.392;9.950;2022-12-07T04:36:41;7.20;;;6.60;;
579;SDS011;276;48.392;9.950;2022-12-07T04:39:08;8.27;;;7.67;;
579;SDS011;276;48.392;9.950;2022-12-07T04:41:44;7.70;;;7.10;;
579;SDS011;276;48.392;9.950;2022-12-07T04:44:14;7.30;;;6.70;;
579;SDS011;276;48.392;9.950;2022-12-07T04:46:43;7.60;;;6.90;;
579;SDS011;276;48.392;9.950;2022-12-07T04:49:09;6.53;;;6.00;;
579;SDS011;276;48.392;9.950;2022-12-07T04:51:36;6.87;;;6.20;;
579;SDS011;276;48.392;9.950;2022-12-07T04:54:02;7.10;;;6.50;;
579;SDS011;276;48.392;9.950;2022-12-07T04:56:30;6.10;;;5.60;;
579;SDS011;276;48.392;9.950;2022-12-07T04:59:02;6.67;;;6.07;;
579;SDS011;276;48.392;9.950;2022-12-07T05:01:31;6.40;;;5.90;;
579;SDS011;276;48.392;9.950;2022-12-07T05:03:59;7.53;;;6.20;;
579;SDS011;276;48.392;9.950;2022-12-07T05:06:25;6.57;;;5.97;;
579;SDS011;276;48.392;9.950;2022-12-07T05:08:50;6.87;;;6.27;;
579;SDS011;276;48.392;9.950;2022-12-07T05:11:16;6.20;;;5.70;;
579;SDS011;276;48.392;9.950;2022-12-07T05:14:02;6.20;;;5.60;;
579;SDS011;276;48.392;9.950;2022-12-07T05:16:31;6.23;;;5.73;;
579;SDS011;276;48.392;9.950;2022-12-07T05:19:01;6.40;;;5.77;;
579;SDS011;276;48.392;9.950;2022-12-07T05:21:27;6.90;;;6.20;;
579;SDS011;276;48.392;9.950;2022-12-07T05:23:55;6.70;;;6.10;;
579;SDS011;276;48.392;9.950;2022-12-07T05:26:21;6.60;;;6.00;;
579;SDS011;276;48.392;9.950;2022-12-07T05:28:49;5.53;;;5.03;;
579;SDS011;276;48.392;9.950;2022-12-07T05:31:25;7.80;;;7.13;;
579;SDS011;276;48.392;9.950;2022-12-07T05:33:53;8.20;;;7.40;;
579;SDS011;276;48.392;9.950;2022-12-07T05:36:18;8.17;;;7.47;;
579;SDS011;276;48.392;9.950;2022-12-07T05:38:44;9.00;;;8.20;;
579;SDS011;276;48.392;9.950;2022-12-07T05:41:11;7.83;;;7.23;;
579;SDS011;276;48.392;9.950;2022-12-07T05:43:59;8.63;;;7.90;;
579;SDS011;276;48.392;9.950;2022-12-07T05:46:25;7.90;;;7.13;;
579;SDS011;276;48.392;9.950;2022-12-07T05:48:51;6.50;;;6.00;;
579;SDS011;276;48.392;9.950;2022-12-07T05:51:18;8.00;;;7.27;;
579;SDS011;276;48.392;9.950;2022-12-07T05:53:44;7.60;;;6.83;;
579;SDS011;276;48.392;9.950;2022-12-07T05:56:12;7.37;;;6.67;;
579;SDS011;276;48.392;9.950;2022-12-07T05:58:39;6.77;;;6.27;;
579;SDS011;276;48.392;9.950;2022-12-07T06:01:23;9.07;;;8.37;;
579;SDS011;276;48.392;9.950;2022-12-07T06:03:48;8.20;;;6.83;;
579;SDS011;276;48.392;9.950;2022-12-07T06:06:14;9.77;;;8.87;;
579;SDS011;276;48.392;9.950;2022-12-07T06:08:40;9.40;;;8.40;;
579;SDS011;276;48.392;9.950;2022-12-07T06:11:05;9.97;;;8.80;;
579;SDS011;276;48.392;9.950;2022-12-07T06:13:52;9.33;;;8.37;;
579;SDS011;276;48.392;9.950;2022-12-07T06:16:20;12.17;;;9.77;;
579;SDS011;276;48.392;9.950;2022-12-07T06:18:50;12.20;;;10.67;;
579;SDS011;276;48.392;9.950;2022-12-07T06:21:18;15.50;;;12.97;;
579;SDS011;276;48.392;9.950;2022-12-07T06:23:46;10.60;;;9.40;;
579;SDS011;276;48.392;9.950;2022-12-07T06:26:12;12.00;;;10.80;;
579;SDS011;276;48.392;9.950;2022-12-07T06:28:43;9.03;;;7.90;;
579;SDS011;276;48.392;9.950;2022-12-07T06:31:09;9.47;;;8.57;;
579;SDS011;276;48.392;9.950;2022-12-07T06:33:40;9.43;;;8.53;;
579;SDS011;276;48.392;9.950;2022-12-07T06:36:10;8.17;;;7.47;;
579;SDS011;276;48.392;9.950;2022-12-07T06:38:39;9.00;;;8.10;;
579;SDS011;276;48.392;9.950;2022-12-07T06:41:05;11.37;;;10.27;;
579;SDS011;276;48.392;9.950;2022-12-07T06:43:31;10.53;;;9.50;;
579;SDS011;276;48.392;9.950;2022-12-07T06:45:57;11.63;;;9.90;;
579;SDS011;276;48.392;9.950;2022-12-07T06:48:23;8.97;;;8.07;;
579;SDS011;276;48.392;9.950;2022-12-07T06:50:48;10.00;;;9.00;;
579;SDS011;276;48.392;9.950;2022-12-07T06:53:14;9.73;;;8.73;;
579;SDS011;276;48.392;9.950;2022-12-07T06:55:42;11.00;;;7.70;;
579;SDS011;276;48.392;9.950;2022-12-07T06:58:08;6.40;;;5.80;;
579;SDS011;276;48.392;9.950;2022-12-07T07:00:33;7.37;;;6.63;;
579;SDS011;276;48.392;9.950;2022-12-07T07:03:01;6.60;;;5.90;;
579;SDS011;276;48.392;9.950;2022-12-07T07:05:27;8.13;;;7.33;;
579;SDS011;276;48.392;9.950;2022-12-07T07:07:52;8.20;;;7.40;;
579;SDS011;276;48.392;9.950;2022-12-07T07:10:20;6.40;;;5.80;;
579;SDS011;276;48.392;9.950;2022-12-07T07:12:50;6.10;;;5.60;;
579;SDS011;276;48.392;9.950;2022-12-07T07:15:18;5.63;;;5.20;;
579;SDS011;276;48.392;9.950;2022-12-07T07:17:44;6.20;;;5.70;;
579;SDS011;276;48.392;9.950;2022-12-07T07:20:13;7.20;;;5.83;;
579;SDS011;276;48.392;9.950;2022-12-07T07:22:39;6.70;;;6.13;;
579;SDS011;276;48.392;9.950;2022-12-07T07:25:04;6.00;;;5.20;;
579;SDS011;276;48.392;9.950;2022-12-07T07:27:33;7.30;;;4.70;;
579;SDS011;276;48.392;9.950;2022-12-07T07:29:58;5.73;;;5.20;;
579;SDS011;276;48.392;9.950;2022-12-07T07:32:24;6.30;;;5.13;;
579;SDS011;276;48.392;9.950;2022-12-07T07:34:50;8.23;;;6.37;;
579;SDS011;276;48.392;9.950;2022-12-07T07:37:15;6.90;;;6.30;;
579;SDS011;276;48.392;9.950;2022-12-07T07:39:43;6.30;;;5.80;;
579;SDS011;276;48.392;9.950;2022-12-07T07:42:11;13.07;;;6.07;;
579;SDS011;276;48.392;9.950;2022-12-07T07:44:37;8.70;;;7.87;;
579;SDS011;276;48.392;9.950;2022-12-07T07:47:02;8.33;;;7.63;;
579;SDS011;276;48.392;9.950;2022-12-07T07:49:28;8.57;;;7.50;;
579;SDS011;276;48.392;9.950;2022-12-07T07:51:53;9.23;;;8.00;;
579;SDS011;276;48.392;9.950;2022-12-07T07:54:19;8.50;;;7.80;;
579;SDS011;276;48.392;9.950;2022-12-07T07:56:52;8.80;;;8.00;;
579;SDS011;276;48.392;9.950;2022-12-07T07:59:20;10.20;;;8.80;;
579;SDS011;276;48.392;9.950;2022-12-07T08:01:45;9.60;;;8.73;;
579;SDS011;276;48.392;9.950;2022-12-07T08:04:11;9.50;;;8.70;;
579;SDS011;276;48.392;9.950;2022-12-07T08:06:39;8.80;;;7.90;;
579;SDS011;276;48.392;9.950;2022-12-07T08:09:07;9.40;;;8.50;;
579;SDS011;276;48.392;9.950;2022-12-07T08:11:36;9.47;;;8.67;;
579;SDS011;276;48.392;9.950;2022-12-07T08:14:02;9.13;;;8.23;;
579;SDS011;276;48.392;9.950;2022-12-07T08:16:30;8.80;;;8.10;;
579;SDS011;276;48.392;9.950;2022-12-07T08:18:56;9.67;;;8.60;;
579;SDS011;276;48.392;9.950;2022-12-07T08:21:24;9.50;;;8.70;;
579;SDS011;276;48.392;9.950;2022-12-07T08:23:50;9.33;;;8.47;;
579;SDS011;276;48.392;9.950;2022-12-07T08:26:15;9.43;;;8.47;;
579;SDS011;276;48.392;9.950;2022-12-07T08:28:47;8.67;;;7.97;;
579;SDS011;276;48.392;9.950;2022-12-07T08:31:13;8.27;;;7.20;;
579;SDS011;276;48.392;9.950;2022-12-07T08:33:47;8.40;;;7.60;;
579;SDS011;276;48.392;9.950;2022-12-07T08:36:15;8.20;;;6.80;;
579;SDS011;276;48.392;9.950;2022-12-07T08:38:41;7.33;;;6.63;;
579;SDS011;276;48.392;9.950;2022-12-07T08:41:07;8.03;;;6.73;;
579;SDS011;276;48.392;9.950;2022-12-07T08:43:36;7.60;;;6.57;;
579;SDS011;276;48.392;9.950;2022-12-07T08:49:14;6.33;;;5.80;;
579;SDS011;276;48.392;9.950;2022-12-07T08:51:45;8.43;;;7.57;;
579;SDS011;276;48.392;9.950;2022-12-07T08:54:12;7.90;;;5.47;;
579;SDS011;276;48.392;9.950;2022-12-07T08:56:43;5.90;;;5.30;;
579;SDS011;276;48.392;9.950;2022-12-07T08:59:10;6.90;;;5.60;;
579;SDS011;276;48.392;9.950;2022-12-07T09:01:37;8.23;;;6.40;;
579;SDS011;276;48.392;9.950;2022-12-07T09:04:05;7.13;;;6.33;;
579;SDS011;276;48.392;9.950;2022-12-07T09:06:33;5.30;;;4.80;;
579;SDS011;276;48.392;9.950;2022-12-07T09:09:02;6.67;;;5.57;;
579;SDS011;276;48.392;9.950;2022-12-07T09:11:29;6.13;;;5.50;;
579;SDS011;276;48.392;9.950;2022-12-07T09:13:55;6.10;;;5.60;;
579;SDS011;276;48.392;9.950;2022-12-07T09:16:20;8.43;;;6.53;;
579;SDS011;276;48.392;9.950;2022-12-07T09:18:46;7.50;;;5.37;;
579;SDS011;276;48.392;9.950;2022-12-07T09:21:14;5.90;;;5.33;;
579;SDS011;276;48.392;9.950;2022-12-07T09:23:42;6.97;;;6.27;;
579;SDS011;276;48.392;9.950;2022-12-07T09:26:10;5.73;;;5.17;;
579;SDS011;276;48.392;9.950;2022-12-07T09:28:36;5.70;;;5.20;;
579;SDS011;276;48.392;9.950;2022-12-07T09:31:02;6.90;;;5.63;;
579;SDS011;276;48.392;9.950;2022-12-07T09:33:31;5.33;;;4.83;;
579;SDS011;276;48.392;9.950;2022-12-07T09:35:59;4.87;;;4.47;;
579;SDS011;276;48.392;9.950;2022-12-07T09:38:28;5.93;;;5.33;;
579;SDS011;276;48.392;9.950;2022-12-07T09:40:54;5.17;;;4.77;;
579;SDS011;276;48.392;9.950;2022-12-07T09:43:21;10.53;;;4.70;;
579;SDS011;276;48.392;9.950;2022-12-07T09:45:53;5.03;;;4.43;;
579;SDS011;276;48.392;9.950;2022-12-07T09:48:29;5.60;;;5.10;;
579;SDS011;276;48.392;9.950;2022-12-07T09:51:00;5.10;;;4.23;;
579;SDS011;276;48.392;9.950;2022-12-07T09:53:36;5.00;;;4.60;;
579;SDS011;276;48.392;9.950;2022-12-07T09:56:03;4.40;;;3.90;;
579;SDS011;276;48.392;9.950;2022-12-07T09:58:32;5.60;;;5.10;;
579;SDS011;276;48.392;9.950;2022-12-07T10:03:32;4.43;;;4.03;;
579;SDS011;276;48.392;9.950;2022-12-07T10:05:59;4.13;;;3.73;;
579;SDS011;276;48.392;9.950;2022-12-07T10:08:25;3.30;;;3.00;;
579;SDS011;276;48.392;9.950;2022-12-07T10:10:52;3.77;;;3.30;;
579;SDS011;276;48.392;9.950;2022-12-07T10:13:36;3.13;;;2.93;;
579;SDS011;276;48.392;9.950;2022-12-07T10:16:04;2.80;;;2.60;;
579;SDS011;276;48.392;9.950;2022-12-07T10:23:34;3.00;;;2.80;;
579;SDS011;276;48.392;9.950;2022-12-07T10:26:18;2.27;;;2.17;;
579;SDS011;276;48.392;9.950;2022-12-07T10:29:12;2.30;;;2.10;;
579;SDS011;276;48.392;9.950;2022-12-07T10:32:05;3.10;;;2.80;;
579;SDS011;276;48.392;9.950;2022-12-07T10:34:35;2.90;;;2.70;;
579;SDS011;276;48.392;9.950;2022-12-07T11:00:43;3.83;;;3.60;;
579;SDS011;276;48.392;9.950;2022-12-07T11:12:06;2.90;;;2.70;;
579;SDS011;276;48.392;9.950;2022-12-07T11:26:39;2.57;;;2.37;;
579;SDS011;276;48.392;9.950;2022-12-07T11:29:25;2.80;;;2.23;;
579;SDS011;276;48.392;9.950;2022-12-07T11:32:22;2.43;;;2.30;;
579;SDS011;276;48.392;9.950;2022-12-07T11:38:19;2.17;;;2.07;;
579;SDS011;276;48.392;9.950;2022-12-07T11:40:47;2.53;;;2.33;;
579;SDS011;276;48.392;9.950;2022-12-07T11:43:20;2.80;;;2.60;;
579;SDS011;276;48.392;9.950;2022-12-07T11:48:28;2.83;;;2.63;;
579;SDS011;276;48.392;9.950;2022-12-07T11:51:04;2.90;;;2.70;;
579;SDS011;276;48.392;9.950;2022-12-07T11:56:08;3.00;;;2.70;;
579;SDS011;276;48.392;9.950;2022-12-07T12:03:41;2.50;;;2.30;;
579;SDS011;276;48.392;9.950;2022-12-07T12:06:11;3.07;;;2.77;;
579;SDS011;276;48.392;9.950;2022-12-07T12:09:01;2.93;;;2.73;;
579;SDS011;276;48.392;9.950;2022-12-07T12:14:03;2.93;;;2.73;;
579;SDS011;276;48.392;9.950;2022-12-07T12:16:40;2.60;;;2.40;;
579;SDS011;276;48.392;9.950;2022-12-07T12:20:04;2.13;;;2.03;;
579;SDS011;276;48.392;9.950;2022-12-07T12:22:41;2.80;;;2.60;;
579;SDS011;276;48.392;9.950;2022-12-07T12:25:26;2.53;;;2.33;;
579;SDS011;276;48.392;9.950;2022-12-07T12:28:01;2.30;;;1.97;;
579;SDS011;276;48.392;9.950;2022-12-07T12:30:35;2.50;;;2.10;;
579;SDS011;276;48.392;9.950;2022-12-07T12:33:14;3.10;;;2.27;;
579;SDS011;276;48.392;9.950;2022-12-07T12:44:00;3.10;;;2.90;;
579;SDS011;276;48.392;9.950;2022-12-07T12:55:00;3.17;;;2.80;;
579;SDS011;276;48.392;9.950;2022-12-07T12:57:39;2.80;;;2.60;;
579;SDS011;276;48.392;9.950;2022-12-07T13:00:18;4.60;;;2.80;;
579;SDS011;276;48.392;9.950;2022-12-07T13:02:48;2.80;;;2.53;;
579;SDS011;276;48.392;9.950;2022-12-07T13:05:19;2.60;;;2.40;;
579;SDS011;276;48.392;9.950;2022-12-07T13:20:56;2.43;;;2.23;;
579;SDS011;276;48.392;9.950;2022-12-07T13:26:57;2.43;;;2.23;;
579;SDS011;276;48.392;9.950;2022-12-07T13:34:33;2.30;;;2.10;;
579;SDS011;276;48.392;9.950;2022-12-07T13:39:58;2.17;;;1.97;;
579;SDS011;276;48.392;9.950;2022-12-07T13:42:29;2.40;;;2.20;;
579;SDS011;276;48.392;9.950;2022-12-07T13:44:58;2.43;;;1.90;;
579;SDS011;276;48.392;9.950;2022-12-07T13:50:20;1.80;;;1.70;;
579;SDS011;276;48.392;9.950;2022-12-07T13:52:49;1.73;;;1.63;;
579;SDS011;276;48.392;9.950;2022-12-07T13:55:15;2.70;;;2.50;;
579;SDS011;276;48.392;9.950;2022-12-07T13:57:42;2.17;;;2.07;;
579;SDS011;276;48.392;9.950;2022-12-07T14:00:15;2.23;;;2.07;;
579;SDS011;276;48.392;9.950;2022-12-07T14:08:00;2.00;;;1.90;;
579;SDS011;276;48.392;9.950;2022-12-07T14:12:56;1.90;;;1.80;;
579;SDS011;276;48.392;9.950;2022-12-07T14:15:29;2.07;;;1.97;;
579;SDS011;276;48.392;9.950;2022-12-07T14:17:57;1.93;;;1.83;;
579;SDS011;276;48.392;9.950;2022-12-07T14:20:29;2.27;;;2.10;;
579;SDS011;276;48.392;9.950;2022-12-07T14:22:55;1.87;;;1.77;;
579;SDS011;276;48.392;9.950;2022-12-07T14:25:24;2.43;;;2.23;;
579;SDS011;276;48.392;9.950;2022-12-07T14:30:26;1.70;;;1.60;;
579;SDS011;276;48.392;9.950;2022-12-07T14:32:54;2.00;;;1.80;;
579;SDS011;276;48.392;9.950;2022-12-07T14:35:25;1.57;;;1.47;;
579;SDS011;276;48.392;9.950;2022-12-07T14:37:52;2.30;;;2.13;;
579;SDS011;276;48.392;9.950;2022-12-07T14:40:20;2.00;;;1.90;;
579;SDS011;276;48.392;9.950;2022-12-07T14:42:50;2.03;;;1.87;;
579;SDS011;276;48.392;9.950;2022-12-07T14:45:22;7.00;;;1.90;;
579;SDS011;276;48.392;9.950;2022-12-07T14:47:52;2.37;;;1.70;;
579;SDS011;276;48.392;9.950;2022-12-07T14:50:18;1.87;;;1.77;;
579;SDS011;276;48.392;9.950;2022-12-07T14:53:04;2.27;;;2.10;;
579;SDS011;276;48.392;9.950;2022-12-07T14:55:40;2.73;;;2.37;;
579;SDS011;276;48.392;9.950;2022-12-07T14:58:08;2.60;;;2.03;;
579;SDS011;276;48.392;9.950;2022-12-07T15:00:42;2.43;;;2.23;;
579;SDS011;276;48.392;9.950;2022-12-07T15:03:08;2.70;;;1.93;;
579;SDS011;276;48.392;9.950;2022-12-07T15:05:34;2.37;;;2.17;;
579;SDS011;276;48.392;9.950;2022-12-07T15:08:02;2.70;;;2.50;;
579;SDS011;276;48.392;9.950;2022-12-07T15:10:29;2.40;;;2.20;;
579;SDS011;276;48.392;9.950;2022-12-07T15:13:00;2.80;;;2.60;;
579;SDS011;276;48.392;9.950;2022-12-07T15:15:46;1.83;;;1.73;;
579;SDS011;276;48.392;9.950;2022-12-07T15:18:12;3.23;;;2.93;;
579;SDS011;276;48.392;9.950;2022-12-07T15:20:40;1.77;;;1.67;;
579;SDS011;276;48.392;9.950;2022-12-07T15:23:06;2.57;;;2.37;;
579;SDS011;276;48.392;9.950;2022-12-07T15:25:34;2.40;;;2.10;;
579;SDS011;276;48.392;9.950;2022-12-07T15:28:02;4.57;;;4.17;;
579;SDS011;276;48.392;9.950;2022-12-07T15:30:28;9.23;;;7.00;;
579;SDS011;276;48.392;9.950;2022-12-07T15:32:53;11.00;;;9.87;;
579;SDS011;276;48.392;9.950;2022-12-07T15:35:21;10.90;;;9.80;;
579;SDS011;276;48.392;9.950;2022-12-07T15:37:47;7.70;;;6.90;;
579;SDS011;276;48.392;9.950;2022-12-07T15:40:14;3.93;;;3.43;;
579;SDS011;276;48.392;9.950;2022-12-07T15:42:40;2.80;;;2.60;;
579;SDS011;276;48.392;9.950;2022-12-07T15:45:06;3.07;;;2.83;;
579;SDS011;276;48.392;9.950;2022-12-07T15:47:37;3.13;;;2.83;;
579;SDS011;276;48.392;9.950;2022-12-07T15:50:06;3.20;;;3.00;;
579;SDS011;276;48.392;9.950;2022-12-07T15:52:38;4.73;;;4.33;;
579;SDS011;276;48.392;9.950;2022-12-07T15:55:14;3.60;;;3.30;;
579;SDS011;276;48.392;9.950;2022-12-07T15:57:40;2.90;;;2.60;;
579;SDS011;276;48.392;9.950;2022-12-07T16:00:08;3.33;;;3.03;;
579;SDS011;276;48.392;9.950;2022-12-07T16:02:37;4.30;;;3.10;;
579;SDS011;276;48.392;9.950;2022-12-07T16:05:05;4.33;;;3.93;;
579;SDS011;276;48.392;9.950;2022-12-07T16:07:33;4.10;;;3.70;;
579;SDS011;276;48.392;9.950;2022-12-07T16:10:04;5.60;;;3.27;;
579;SDS011;276;48.392;9.950;2022-12-07T16:12:32;3.83;;;3.53;;
579;SDS011;276;48.392;9.950;2022-12-07T16:14:58;2.83;;;2.63;;
579;SDS011;276;48.392;9.950;2022-12-07T16:17:23;4.23;;;3.00;;
579;SDS011;276;48.392;9.950;2022-12-07T16:19:49;3.63;;;2.47;;
579;SDS011;276;48.392;9.950;2022-12-07T16:22:14;3.13;;;2.93;;
579;SDS011;276;48.392;9.950;2022-12-07T16:24:40;4.17;;;3.03;;
579;SDS011;276;48.392;9.950;2022-12-07T16:27:05;4.10;;;3.80;;
579;SDS011;276;48.392;9.950;2022-12-07T16:29:36;4.17;;;3.27;;
579;SDS011;276;48.392;9.950;2022-12-07T16:32:01;3.40;;;3.10;;
579;SDS011;276;48.392;9.950;2022-12-07T16:34:29;4.03;;;3.73;;
579;SDS011;276;48.392;9.950;2022-12-07T16:37:00;4.37;;;3.97;;
579;SDS011;276;48.392;9.950;2022-12-07T16:39:28;4.90;;;4.50;;
579;SDS011;276;48.392;9.950;2022-12-07T16:41:54;5.73;;;5.13;;
579;SDS011;276;48.392;9.950;2022-12-07T16:44:19;6.00;;;5.40;;
579;SDS011;276;48.392;9.950;2022-12-07T16:46:49;7.77;;;7.07;;
579;SDS011;276;48.392;9.950;2022-12-07T16:49:15;7.90;;;6.00;;
579;SDS011;276;48.392;9.950;2022-12-07T16:51:42;7.60;;;6.50;;
579;SDS011;276;48.392;9.950;2022-12-07T16:54:11;8.57;;;6.77;;
579;SDS011;276;48.392;9.950;2022-12-07T16:56:42;9.10;;;8.10;;
579;SDS011;276;48.392;9.950;2022-12-07T16:59:10;8.93;;;8.03;;
579;SDS011;276;48.392;9.950;2022-12-07T17:01:36;6.40;;;5.80;;
579;SDS011;276;48.392;9.950;2022-12-07T17:04:02;5.83;;;5.23;;
579;SDS011;276;48.392;9.950;2022-12-07T17:06:30;4.90;;;4.47;;
579;SDS011;276;48.392;9.950;2022-12-07T17:08:56;5.37;;;4.53;;
579;SDS011;276;48.392;9.950;2022-12-07T17:11:24;4.30;;;3.90;;
579;SDS011;276;48.392;9.950;2022-12-07T17:13:51;5.23;;;4.83;;
579;SDS011;276;48.392;9.950;2022-12-07T17:16:38;8.43;;;6.17;;
579;SDS011;276;48.392;9.950;2022-12-07T17:19:08;6.33;;;5.73;;
579;SDS011;276;48.392;9.950;2022-12-07T17:21:36;7.30;;;6.13;;
579;SDS011;276;48.392;9.950;2022-12-07T17:24:03;6.43;;;5.90;;
579;SDS011;276;48.392;9.950;2022-12-07T17:26:31;6.30;;;5.70;;
579;SDS011;276;48.392;9.950;2022-12-07T17:29:02;6.80;;;6.20;;
579;SDS011;276;48.392;9.950;2022-12-07T17:31:29;7.53;;;6.17;;
579;SDS011;276;48.392;9.950;2022-12-07T17:34:02;5.83;;;5.07;;
579;SDS011;276;48.392;9.950;2022-12-07T17:36:29;5.00;;;4.50;;
579;SDS011;276;48.392;9.950;2022-12-07T17:38:58;5.83;;;4.90;;
579;SDS011;276;48.392;9.950;2022-12-07T17:41:25;5.63;;;5.13;;
579;SDS011;276;48.392;9.950;2022-12-07T17:44:14;7.20;;;4.63;;
579;SDS011;276;48.392;9.950;2022-12-07T17:46:41;5.87;;;5.27;;
579;SDS011;276;48.392;9.950;2022-12-07T17:49:10;4.00;;;3.70;;
579;SDS011;276;48.392;9.950;2022-12-07T17:51:37;6.10;;;5.13;;
579;SDS011;276;48.392;9.950;2022-12-07T17:54:24;5.60;;;3.97;;
579;SDS011;276;48.392;9.950;2022-12-07T17:56:50;5.73;;;5.23;;
579;SDS011;276;48.392;9.950;2022-12-07T17:59:18;13.10;;;9.20;;
579;SDS011;276;48.392;9.950;2022-12-07T18:01:44;14.63;;;11.63;;
579;SDS011;276;48.392;9.950;2022-12-07T18:04:12;10.47;;;9.47;;
579;SDS011;276;48.392;9.950;2022-12-07T18:06:38;13.13;;;10.87;;
579;SDS011;276;48.392;9.950;2022-12-07T18:09:04;12.30;;;11.10;;
579;SDS011;276;48.392;9.950;2022-12-07T18:11:31;20.47;;;14.83;;
579;SDS011;276;48.392;9.950;2022-12-07T18:13:59;16.40;;;13.33;;
579;SDS011;276;48.392;9.950;2022-12-07T18:16:26;15.17;;;12.13;;
579;SDS011;276;48.392;9.950;2022-12-07T18:18:58;8.00;;;6.60;;
579;SDS011;276;48.392;9.950;2022-12-07T18:21:29;5.60;;;5.07;;
579;SDS011;276;48.392;9.950;2022-12-07T18:23:59;5.73;;;5.17;;
579;SDS011;276;48.392;9.950;2022-12-07T18:26:29;6.27;;;5.20;;
579;SDS011;276;48.392;9.950;2022-12-07T18:28:57;5.93;;;5.43;;
579;SDS011;276;48.392;9.950;2022-12-07T18:31:25;6.83;;;6.30;;
579;SDS011;276;48.392;9.950;2022-12-07T18:33:51;6.17;;;5.57;;
579;SDS011;276;48.392;9.950;2022-12-07T18:36:20;7.00;;;6.30;;
579;SDS011;276;48.392;9.950;2022-12-07T18:38:48;8.27;;;7.27;;
579;SDS011;276;48.392;9.950;2022-12-07T18:41:14;7.03;;;6.43;;
579;SDS011;276;48.392;9.950;2022-12-07T18:43:40;9.53;;;8.70;;
579;SDS011;276;48.392;9.950;2022-12-07T18:46:16;9.40;;;8.47;;